Time;durP1;ratioP1;P1;durP2;ratioP2;P2;SDS_P1;SDS_P2;PMS_P1;PMS_P2;Temp;Humidity;BMP_temperature;BMP_pressure;BME280_temperature;BME280_humidity;BME280_pressure;Samples;Min_cycle;Max_cycle;Signal;HPM_P1;HPM_P2
2021/07/04 00:00:41;;;;;;;29.48;25.00;;;21.60;99.90;;;22.09;77.53;101144.47;5095653;28;20058;-70
2021/07/04 00:03:13;;;;;;;31.60;25.80;;;21.70;99.90;;;22.12;76.64;101144.34;5113670;28;20040;-70
2021/07/04 00:05:46;;;;;;;31.67;26.85;;;21.60;99.90;;;21.96;76.36;101133.41;5113226;28;20051;-70
2021/07/04 00:08:17;;;;;;;30.20;26.38;;;21.60;99.90;;;21.85;76.37;101105.22;5095355;28;20485;-70
2021/07/04 00:10:49;;;;;;;29.73;26.15;;;21.60;99.90;;;22.06;76.10;101134.75;5113575;28;20051;-70
2021/07/04 00:13:20;;;;;;;29.92;26.08;;;21.60;99.90;;;22.07;76.08;101128.38;5113073;28;20554;-70
2021/07/04 00:15:49;;;;;;;;;;;21.70;99.90;;;22.04;75.97;101120.47;5113385;28;20043;-70
2021/07/04 00:18:21;;;;;;;28.52;25.50;;;21.70;99.90;;;22.00;75.94;101110.78;5113224;28;20455;-70
2021/07/04 00:20:50;;;;;;;30.50;25.58;;;21.70;99.90;;;22.07;76.19;101125.69;5095222;28;20513;-70
2021/07/04 00:23:20;;;;;;;28.77;24.75;;;21.70;99.90;;;22.07;76.31;101122.09;5112979;28;20501;-70
2021/07/04 00:25:49;;;;;;;27.20;24.20;;;21.70;99.90;;;22.08;76.37;101126.56;5113285;28;20044;-70
2021/07/04 00:28:22;;;;;;;28.38;25.02;;;21.70;99.90;;;22.01;76.20;101112.50;5095386;28;20066;-70
2021/07/04 00:30:51;;;;;;;32.28;25.13;;;21.60;99.90;;;22.06;76.31;101110.47;5113371;28;20035;-70
2021/07/04 00:33:20;;;;;;;29.52;24.83;;;21.60;99.90;;;22.05;76.36;101114.09;5113303;28;20115;-70
2021/07/04 00:35:49;;;;;;;28.08;25.08;;;21.70;99.90;;;22.03;76.35;101116.00;5113323;28;20039;-70
2021/07/04 00:38:18;;;;;;;28.83;25.08;;;21.60;99.90;;;22.01;76.50;101112.50;5112929;28;20455;-70
2021/07/04 00:40:47;;;;;;;30.65;25.20;;;21.60;99.90;;;22.01;76.32;101125.13;5094998;28;20505;-70
2021/07/04 00:43:16;;;;;;;32.97;24.90;;;21.60;99.90;;;22.01;76.38;101114.34;5112944;28;20515;-70
2021/07/04 00:45:46;;;;;;;32.60;24.80;;;21.60;99.90;;;21.99;76.06;101111.69;5113070;28;20054;-70
2021/07/04 00:48:15;;;;;;;29.48;24.20;;;21.60;99.90;;;21.99;76.25;101117.09;5095221;28;20059;-70
2021/07/04 00:50:46;;;;;;;27.38;24.33;;;21.60;99.90;;;21.95;76.28;101114.63;5094939;28;20079;-70
2021/07/04 00:53:18;;;;;;;30.77;25.17;;;21.60;99.90;;;21.85;76.42;101102.53;5113080;28;20081;-70
2021/07/04 00:55:47;;;;;;;35.72;27.02;;;21.50;99.90;;;21.89;76.44;101110.38;5094748;28;20127;-70
2021/07/04 00:58:17;;;;;;;30.85;25.88;;;21.50;99.90;;;21.84;76.60;101093.56;5095016;28;20051;-71
2021/07/04 01:00:49;;;;;;;30.65;26.23;;;21.50;99.90;;;21.89;76.63;101102.31;5095052;28;20044;-70
2021/07/04 01:03:18;;;;;;;34.20;27.23;;;21.50;99.90;;;21.78;76.52;101084.88;5113025;28;20051;-70
2021/07/04 01:05:51;;;;;;;32.47;27.38;;;21.50;99.90;;;21.89;76.58;101101.44;5094758;28;20040;-70
2021/07/04 01:08:20;;;;;;;29.02;25.08;;;21.50;99.90;;;21.87;76.70;101101.53;5094723;28;20052;-70
2021/07/04 01:10:50;;;;;;;29.88;25.77;;;21.50;99.90;;;21.72;76.99;101096.81;5094770;28;20660;-70
2021/07/04 01:13:22;;;;;;;29.45;25.13;;;21.40;99.90;;;21.72;77.03;101096.81;5094738;28;20127;-70
2021/07/04 01:16:06;;;;;;;30.70;25.50;;;21.30;99.90;;;21.74;76.99;101088.69;5094682;28;20051;-70
2021/07/04 01:18:35;;;;;;;28.95;24.83;;;21.30;99.90;;;21.69;77.40;101090.69;5094660;28;20052;-70
2021/07/04 01:21:07;;;;;;;28.35;25.25;;;21.30;99.90;;;21.68;77.37;101089.81;5094604;28;20044;-70
2021/07/04 01:23:40;;;;;;;34.63;27.83;;;21.30;99.90;;;21.68;77.26;101084.41;5112870;28;20175;-70
2021/07/04 01:26:11;;;;;;;36.95;28.33;;;21.30;99.90;;;21.68;77.56;101083.56;5112548;28;20047;-70
2021/07/04 01:28:40;;;;;;;33.80;28.48;;;21.30;99.90;;;21.64;77.84;101069.34;5116578;28;20435;-70
2021/07/04 01:31:10;;;;;;;32.40;27.52;;;21.20;99.90;;;21.65;77.91;101073.81;5116556;28;20039;-70
2021/07/04 01:33:45;;;;;;;33.05;27.55;;;21.30;99.90;;;21.67;77.70;101088.06;5098202;28;20051;-70
2021/07/04 01:36:23;;;;;;;31.48;26.00;;;21.30;99.90;;;21.67;77.73;101082.69;5098054;28;20085;-70
2021/07/04 01:38:54;;;;;;;30.58;25.25;;;21.30;99.90;;;21.10;77.67;100978.56;5098011;28;20051;-70
2021/07/04 01:41:23;;;;;;;30.02;25.40;;;21.30;99.90;;;21.69;77.94;101083.50;5098039;28;20096;-70
2021/07/04 01:43:54;;;;;;;29.02;25.75;;;21.30;99.90;;;21.71;77.95;101078.03;5097958;28;20480;-70
2021/07/04 01:46:29;;;;;;;28.45;24.83;;;21.30;99.90;;;21.68;78.42;101083.56;5097926;28;20487;-70
2021/07/04 01:49:04;;;;;;;26.83;23.95;;;21.30;99.90;;;21.62;78.60;101079.34;5097881;28;20104;-70
2021/07/04 01:51:33;;;;;;;28.02;24.33;;;21.20;99.90;;;21.63;78.85;101074.81;5116111;28;20139;-70
2021/07/04 01:54:06;;;;;;;26.35;23.55;;;21.20;99.90;;;21.56;78.79;101068.88;5097762;28;20040;-70
2021/07/04 01:56:39;;;;;;;28.08;23.95;;;21.20;99.90;;;21.53;78.83;101067.19;5115755;28;20127;-70
2021/07/04 01:59:09;;;;;;;27.47;24.30;;;21.10;99.90;;;21.56;78.47;101095.78;5097684;28;20564;-70
2021/07/04 02:01:56;;;;;;;28.52;25.27;;;21.20;99.90;;;21.55;78.05;101059.91;5115976;28;20412;-70
2021/07/04 02:04:24;;;;;;;27.65;24.52;;;21.20;99.90;;;21.53;78.09;101069.88;5115891;28;20047;-70
2021/07/04 02:07:06;;;;;;;28.23;24.73;;;21.10;99.90;;;21.31;78.01;101030.56;5097502;28;20071;-70
2021/07/04 02:09:37;;;;;;;29.90;25.47;;;21.20;99.90;;;21.50;77.95;101067.31;5097112;28;20073;-70
2021/07/04 02:12:07;;;;;;;30.95;26.50;;;21.10;99.90;;;21.48;77.98;101073.72;5097717;28;20040;-70
2021/07/04 02:14:37;;;;;;;30.98;26.80;;;21.10;99.90;;;21.47;77.89;101074.66;5097378;28;20508;-70
2021/07/04 02:17:19;;;;;;;34.20;27.33;;;21.10;99.90;;;21.43;77.86;101068.53;5097371;28;20130;-70
2021/07/04 02:20:40;;;;;;;33.13;27.33;;;21.10;99.90;;;21.38;77.73;101064.31;5063326;28;20059;-70
2021/07/04 02:23:27;;;;;;;34.90;28.40;;;21.10;99.90;;;21.38;77.77;101054.44;5115515;28;20048;-70
2021/07/04 02:26:13;;;;;;;30.98;25.77;;;21.00;99.90;;;21.35;78.02;101067.16;5096988;28;20052;-70
2021/07/04 02:28:45;;;;;;;32.35;26.35;;;21.00;99.90;;;21.30;78.00;101066.47;5097085;28;20046;-70
2021/07/04 02:31:21;;;;;;;30.27;26.85;;;20.90;99.90;;;21.27;77.94;101062.09;5097095;28;20455;-70
2021/07/04 02:33:53;;;;;;;31.55;26.45;;;20.90;99.90;;;21.29;78.03;101059.34;5096820;28;20055;-70
2021/07/04 02:36:23;;;;;;;34.45;27.50;;;20.90;99.90;;;21.29;77.94;101060.22;5097042;28;20055;-70
2021/07/04 02:38:55;;;;;;;31.35;26.40;;;20.90;99.90;;;21.22;77.94;101058.75;5096058;28;20058;-70
2021/07/04 02:41:25;;;;;;;36.65;27.15;;;20.90;99.90;;;21.27;77.88;101070.16;5115041;28;20112;-70
2021/07/04 02:43:54;;;;;;;31.20;26.92;;;20.90;99.90;;;21.22;77.96;101058.75;5096789;28;20067;-70
2021/07/04 02:46:23;;;;;;;31.73;26.25;;;20.80;99.90;;;21.21;77.88;101065.09;5114678;28;20149;-70
2021/07/04 02:48:52;;;;;;;30.30;26.50;;;20.80;99.90;;;21.19;77.80;101063.41;5114966;28;20047;-70
2021/07/04 02:51:20;;;;;;;29.17;25.58;;;20.80;99.90;;;21.18;77.74;101062.53;5096601;28;20043;-70
2021/07/04 02:53:49;;;;;;;30.05;25.63;;;20.80;99.90;;;21.15;77.79;101059.97;5096596;28;20039;-70
2021/07/04 02:56:24;;;;;;;30.45;25.15;;;20.80;99.90;;;21.15;77.78;101061.78;5096476;28;20082;-70
2021/07/04 02:58:53;;;;;;;27.42;23.70;;;20.80;99.90;;;21.09;77.73;101062.06;5114529;28;20123;-70
2021/07/04 03:01:23;;;;;;;28.33;25.23;;;20.70;99.90;;;20.81;78.21;101064.19;5096471;28;20075;-70
2021/07/04 03:03:52;;;;;;;30.05;25.92;;;20.50;99.90;;;20.75;79.00;101067.13;5096365;28;20439;-70
2021/07/04 03:06:21;;;;;;;30.02;26.20;;;20.40;99.90;;;20.69;79.48;101062.91;5096276;28;20074;-70
2021/07/04 03:08:51;;;;;;;31.50;26.58;;;20.30;99.90;;;20.70;79.58;101056.56;5096278;28;20050;-70
2021/07/04 03:11:21;;;;;;;;;;;20.30;99.90;;;20.64;79.96;101059.53;5096434;28;20075;-70
2021/07/04 03:13:51;;;;;;;37.80;29.48;;;20.30;99.90;;;20.61;80.28;101059.66;5096167;28;19920;-70
2021/07/04 03:16:21;;;;;;;31.38;25.95;;;20.20;99.90;;;20.61;80.43;101056.97;5096421;28;20519;-70
2021/07/04 03:18:51;;;;;;;27.55;24.38;;;20.20;99.90;;;20.41;81.27;101056.94;5096390;28;20449;-70
2021/07/04 03:21:20;;;;;;;30.98;24.95;;;20.00;99.90;;;19.68;81.81;100949.81;5096040;28;20420;-70
2021/07/04 03:23:51;;;;;;;31.10;26.90;;;19.80;99.90;;;20.14;82.63;101052.66;5096042;28;20515;-70
2021/07/04 03:26:21;;;;;;;32.88;27.27;;;19.70;99.90;;;20.22;82.75;101043.41;5095890;28;20051;-70
2021/07/04 03:28:54;;;;;;;35.75;30.13;;;19.70;99.90;;;20.29;82.57;101052.06;5096009;28;20051;-70
2021/07/04 03:31:31;;;;;;;37.38;31.10;;;19.80;99.90;;;20.18;82.77;101046.22;5095799;28;20112;-70
2021/07/04 03:33:59;;;;;;;40.25;33.38;;;19.80;99.90;;;20.20;83.14;101047.94;5095880;28;20101;-70
2021/07/04 03:36:32;;;;;;;37.15;29.98;;;19.70;99.90;;;20.18;83.19;101039.09;5095956;28;20105;-70
2021/07/04 03:39:01;;;;;;;36.80;30.63;;;19.70;99.90;;;20.16;83.47;101040.91;5095748;28;20078;-70
2021/07/04 03:41:31;;;;;;;37.55;30.80;;;19.70;99.90;;;19.54;83.40;100935.19;5095706;28;20048;-70
2021/07/04 03:44:01;;;;;;;34.80;30.58;;;19.70;99.90;;;20.09;83.66;101044.78;5095625;28;20044;-70
2021/07/04 03:46:30;;;;;;;35.95;29.63;;;19.70;99.90;;;20.11;83.60;101037.53;5113609;28;20071;-70
2021/07/04 03:48:59;;;;;;;36.55;30.10;;;19.70;99.90;;;20.10;83.61;101034.91;5113804;28;20082;-70
2021/07/04 03:51:36;;;;;;;35.25;29.08;;;19.70;99.90;;;20.18;83.42;101038.16;5095023;28;20511;-70
2021/07/04 03:54:08;;;;;;;32.40;27.90;;;19.70;99.90;;;20.20;83.17;101030.94;5095799;28;20576;-70
2021/07/04 03:56:37;;;;;;;37.08;30.02;;;19.80;99.90;;;20.10;83.62;101041.16;5095582;28;20055;-70
2021/07/04 03:59:10;;;;;;;38.30;31.92;;;19.70;99.90;;;20.17;83.68;101042.66;5095436;28;20043;-70
2021/07/04 04:01:38;;;;;;;33.22;28.05;;;19.70;99.90;;;20.20;83.42;101042.59;5095410;28;20464;-70
2021/07/04 04:04:08;;;;;;;32.42;27.63;;;19.80;99.90;;;20.27;83.11;101038.69;5095505;28;20142;-70
2021/07/04 04:06:38;;;;;;;33.30;26.38;;;19.90;99.90;;;20.16;83.06;101040.91;5095497;28;20124;-70
2021/07/04 04:09:20;;;;;;;34.58;28.30;;;19.80;99.90;;;20.14;83.25;101040.09;5095361;28;20048;-70
2021/07/04 04:11:54;;;;;;;35.17;28.88;;;19.80;99.90;;;20.18;83.05;101044.44;5095345;28;20460;-70
2021/07/04 04:14:29;;;;;;;32.63;28.67;;;19.80;99.90;;;20.27;82.86;101049.44;5095313;28;20067;-70
2021/07/04 04:17:01;;;;;;;36.50;29.35;;;19.90;99.90;;;20.26;82.55;101046.81;5095530;28;20070;-70
2021/07/04 04:19:34;;;;;;;33.35;27.40;;;19.90;99.90;;;20.33;82.38;101051.88;5095327;28;20098;-70
2021/07/04 04:22:05;;;;;;;35.45;28.38;;;20.00;99.90;;;20.31;82.22;101044.81;5095196;28;20050;-70
2021/07/04 04:24:36;;;;;;;36.10;28.95;;;20.00;99.90;;;20.39;81.95;101051.63;5095197;28;20048;-70
2021/07/04 04:27:06;;;;;;;34.53;26.55;;;20.00;99.90;;;20.24;81.79;101021.81;5095058;28;20066;-70
2021/07/04 04:29:37;;;;;;;31.30;26.87;;;20.00;99.90;;;20.38;81.81;101049.84;5095155;28;20063;-70
2021/07/04 04:32:07;;;;;;;32.25;26.73;;;20.10;99.90;;;20.42;81.61;101050.63;5113357;28;20303;-70
2021/07/04 04:34:36;;;;;;;31.55;25.30;;;20.00;99.90;;;20.35;81.53;101044.63;5094868;28;20051;-70
2021/07/04 04:37:06;;;;;;;32.33;26.35;;;20.00;99.90;;;20.33;81.45;101045.63;5113270;28;20044;-70
2021/07/04 04:39:35;;;;;;;31.25;25.65;;;19.90;99.90;;;19.96;83.15;101032.78;5113266;28;20070;-70
2021/07/04 04:42:04;;;;;;;32.10;26.20;;;19.70;99.90;;;20.11;83.74;101045.59;5113223;28;20035;-70
2021/07/04 04:44:36;;;;;;;32.33;26.92;;;19.70;99.90;;;20.26;83.54;101050.38;5113310;28;20100;-70
2021/07/04 04:47:06;;;;;;;34.83;26.42;;;19.80;99.90;;;20.35;83.15;101059.88;5113175;28;20050;-70
2021/07/04 04:49:35;;;;;;;34.03;27.47;;;19.90;99.90;;;20.29;83.23;101047.56;5113080;28;20051;-70
2021/07/04 04:52:06;;;;;;;35.92;27.33;;;20.00;99.90;;;20.28;83.01;101028.81;5113149;28;20285;-70
2021/07/04 04:54:34;;;;;;;;;;;20.00;99.90;;;20.43;82.63;101029.06;5113642;28;20436;-70
2021/07/04 04:57:09;;;;;;;34.42;27.05;;;20.20;99.90;;;20.56;82.36;101057.16;5094727;28;19923;-71
2021/07/04 04:59:40;;;;;;;34.42;27.05;;;20.20;99.90;;;20.05;82.31;100957.22;5113146;28;20048;-71
2021/07/04 05:02:08;;;;;;;30.77;26.38;;;20.30;99.90;;;20.69;81.96;101060.22;5114275;28;20055;-71
2021/07/04 05:04:37;;;;;;;30.95;26.75;;;20.30;99.90;;;20.76;81.72;101056.31;5117009;28;20073;-71
2021/07/04 05:07:07;;;;;;;32.03;27.52;;;20.40;99.90;;;20.80;81.54;101044.47;5116856;28;20123;-71
2021/07/04 05:09:35;;;;;;;33.92;27.02;;;20.40;99.90;;;20.83;81.45;101043.47;5116906;28;20054;-70
2021/07/04 05:12:05;;;;;;;29.98;25.83;;;20.50;99.90;;;20.88;81.60;101053.09;5098600;28;20082;-71
2021/07/04 05:14:34;;;;;;;31.25;26.38;;;20.50;99.90;;;20.88;81.51;101055.78;5098756;28;20040;-70
2021/07/04 05:17:05;;;;;;;31.95;26.02;;;20.50;99.90;;;20.99;81.41;101056.19;5098505;28;20043;-71
2021/07/04 05:19:34;;;;;;;31.52;26.67;;;20.60;99.90;;;21.01;81.11;101053.44;5116805;28;20122;-70
2021/07/04 05:22:03;;;;;;;31.80;26.65;;;20.60;99.90;;;21.06;80.66;101052.28;5116975;28;20071;-70
2021/07/04 05:24:31;;;;;;;31.58;26.27;;;20.60;99.90;;;21.10;80.59;101045.84;5116630;28;20044;-71
2021/07/04 05:27:00;;;;;;;29.95;26.45;;;20.70;99.90;;;21.11;80.70;101044.03;5116209;28;20040;-70
2021/07/04 05:29:28;;;;;;;30.25;25.77;;;20.70;99.90;;;21.17;80.50;101049.13;5116602;28;20480;-71
2021/07/04 05:31:57;;;;;;;30.77;25.90;;;20.70;99.90;;;21.12;80.99;101041.25;5098178;28;20067;-71
2021/07/04 05:34:27;;;;;;;29.08;25.17;;;20.70;99.90;;;20.93;81.18;101015.22;5116120;28;20493;-70
2021/07/04 05:36:57;;;;;;;28.80;24.40;;;20.70;99.90;;;21.18;80.85;101035.63;5116728;28;20043;-70
2021/07/04 05:39:27;;;;;;;27.85;23.95;;;20.80;99.90;;;21.23;80.46;101033.59;5116106;28;20473;-70
2021/07/04 05:41:56;;;;;;;29.88;24.92;;;20.80;99.90;;;21.27;80.30;101023.56;5116167;28;20096;-70
2021/07/04 05:44:25;;;;;;;29.23;25.55;;;20.90;99.90;;;21.34;79.91;101017.81;5097921;28;20128;-71
2021/07/04 05:46:53;;;;;;;29.67;26.48;;;20.90;99.90;;;21.41;79.87;101021.09;5116080;28;20040;-71
2021/07/04 05:49:22;;;;;;;31.80;27.92;;;21.00;99.90;;;21.47;79.81;101027.06;5116135;28;20063;-71
2021/07/04 05:51:52;;;;;;;30.90;27.15;;;21.10;99.90;;;21.53;79.60;101024.09;5115811;28;20040;-71
2021/07/04 05:54:21;;;;;;;32.33;26.75;;;21.10;99.90;;;21.54;79.36;101022.28;5116142;28;20475;-70
2021/07/04 05:56:49;;;;;;;28.50;24.80;;;21.20;99.90;;;21.54;79.09;101024.97;5115805;28;20043;-70
2021/07/04 05:59:17;;;;;;;28.33;25.13;;;21.20;99.90;;;21.55;79.04;101019.53;5115967;28;20056;-70
2021/07/04 06:01:47;;;;;;;29.67;25.85;;;21.20;99.90;;;21.60;78.86;101018.44;5115629;28;20407;-71
2021/07/04 06:04:16;;;;;;;29.83;25.43;;;21.20;99.90;;;21.62;78.83;101005.78;5115677;28;20053;-70
2021/07/04 06:06:44;;;;;;;28.40;24.45;;;21.20;99.90;;;21.69;79.06;101018.88;5115836;28;20131;-70
2021/07/04 06:09:14;;;;;;;27.80;24.83;;;21.30;99.90;;;21.78;79.07;101017.53;5115715;28;20040;-70
2021/07/04 06:11:42;;;;;;;27.80;24.80;;;21.40;99.90;;;21.85;79.04;101011.84;5116071;28;20542;-70
2021/07/04 06:14:11;;;;;;;27.77;24.80;;;21.40;99.90;;;21.87;78.85;101009.06;5114647;28;20360;-71
2021/07/04 06:16:39;;;;;;;27.00;24.15;;;21.50;99.90;;;21.92;78.67;101013.28;5115621;28;20504;-70
2021/07/04 06:19:08;;;;;;;25.77;22.98;;;21.50;99.90;;;21.99;77.91;101019.25;5115573;28;20044;-71
2021/07/04 06:21:36;;;;;;;26.90;23.10;;;21.60;99.90;;;21.75;76.91;100983.56;5115426;28;20054;-70
2021/07/04 06:24:06;;;;;;;24.23;21.73;;;21.60;99.90;;;22.01;76.97;101014.66;5097185;28;20074;-70
2021/07/04 06:26:36;;;;;;;22.05;19.73;;;21.70;99.90;;;22.07;76.19;101017.03;5096899;28;20138;-71
2021/07/04 06:29:06;;;;;;;18.13;16.23;;;21.70;99.90;;;21.59;74.46;100944.84;5115115;28;20042;-70
2021/07/04 06:31:34;;;;;;;18.88;16.88;;;21.60;99.90;;;22.04;75.13;101004.59;5115031;28;20123;-71
2021/07/04 06:34:03;;;;;;;16.33;14.35;;;21.60;99.90;;;22.11;74.39;101008.72;5115052;28;20064;-70
2021/07/04 06:36:32;;;;;;;15.32;13.73;;;21.70;99.90;;;22.12;73.30;100999.72;5115258;28;20048;-71
2021/07/04 06:39:01;;;;;;;13.35;11.10;;;21.80;99.90;;;22.08;72.28;101000.81;5115241;28;20043;-70
2021/07/04 06:41:29;;;;;;;11.43;10.32;;;21.80;99.90;;;22.20;72.02;101008.25;5096777;28;20062;-70
2021/07/04 06:44:00;;;;;;;11.85;10.65;;;21.90;99.90;;;22.39;70.92;101002.81;5114873;28;20171;-71
2021/07/04 06:46:28;;;;;;;;;;;22.00;99.90;;;22.49;71.53;100992.44;5115538;28;20039;-71
2021/07/04 06:48:57;;;;;;;12.55;11.25;;;22.20;99.90;;;22.62;71.15;100996.28;5115002;28;19930;-70
2021/07/04 06:51:26;;;;;;;11.00;9.90;;;22.30;99.90;;;22.66;69.46;100985.25;5114945;28;20097;-71
2021/07/04 06:53:54;;;;;;;10.38;9.07;;;22.40;99.90;;;22.75;69.54;100997.38;5114908;28;20668;-71
2021/07/04 06:56:22;;;;;;;11.38;9.93;;;22.40;99.90;;;22.83;68.79;100997.84;5096375;28;20378;-71
2021/07/04 06:58:51;;;;;;;11.75;10.32;;;22.50;99.90;;;22.94;68.15;101004.41;5114757;28;20044;-70
2021/07/04 07:01:21;;;;;;;11.40;10.20;;;22.60;99.90;;;23.12;68.11;100999.88;5114766;28;20469;-71
2021/07/04 07:03:50;;;;;;;10.63;9.57;;;22.80;99.90;;;23.17;67.19;100995.13;5114732;28;20047;-71
2021/07/04 07:06:19;;;;;;;11.15;9.82;;;22.90;99.90;;;23.10;66.40;100967.56;5114330;28;20047;-71
2021/07/04 07:08:47;;;;;;;10.07;9.18;;;23.00;99.90;;;23.30;66.17;100993.47;5096492;28;20071;-71
2021/07/04 07:11:16;;;;;;;11.77;9.73;;;22.90;99.90;;;23.35;66.81;101001.34;5114574;28;20048;-71
2021/07/04 07:13:45;;;;;;;8.80;7.82;;;23.00;99.90;;;23.39;67.22;100992.13;5096210;28;20457;-71
2021/07/04 07:16:13;;;;;;;6.20;5.43;;;23.10;99.90;;;23.40;65.18;100996.59;5114427;28;20043;-71
2021/07/04 07:18:45;;;;;;;5.30;4.82;;;23.20;99.90;;;23.48;64.45;101002.44;5096130;28;20096;-71
2021/07/04 07:21:16;;;;;;;6.40;5.80;;;23.20;99.90;;;23.45;63.96;101000.75;5114171;28;20039;-71
2021/07/04 07:23:45;;;;;;;6.93;6.32;;;23.20;99.90;;;23.47;64.01;100998.84;5114378;28;20104;-71
2021/07/04 07:26:14;;;;;;;6.93;6.32;;;23.20;99.90;;;23.48;63.83;100986.22;5095728;28;20036;-71
2021/07/04 07:28:44;;;;;;;6.53;6.03;;;23.10;99.90;;;23.62;64.21;100998.00;5114184;28;20376;-71
2021/07/04 07:31:15;;;;;;;6.40;5.90;;;23.20;99.90;;;23.71;64.35;100999.31;5095831;28;20126;-71
2021/07/04 07:33:45;;;;;;;6.43;5.82;;;23.30;99.90;;;23.82;64.57;100996.88;5113914;28;20063;-71
2021/07/04 07:36:14;;;;;;;6.18;5.68;;;23.50;99.90;;;23.92;63.44;100998.97;5095591;28;20139;-71
2021/07/04 07:38:43;;;;;;;6.97;6.30;;;23.60;99.90;;;23.55;62.62;100918.28;5113849;28;20043;-71
2021/07/04 07:41:11;;;;;;;7.13;6.43;;;23.70;99.90;;;23.95;61.38;100997.91;5113633;28;20511;-71
2021/07/04 07:43:42;;;;;;;6.47;5.90;;;23.60;99.90;;;23.91;62.17;101004.44;5113758;28;20047;-71
2021/07/04 07:46:11;;;;;;;6.97;6.25;;;23.60;99.90;;;23.90;62.61;101003.59;5095577;28;20079;-71
2021/07/04 07:48:40;;;;;;;6.00;5.40;;;23.60;99.90;;;23.92;62.49;101001.69;5113735;28;20089;-71
2021/07/04 07:51:34;;;;;;;5.03;4.63;;;23.60;99.90;;;23.97;61.57;101013.09;5100031;28;20063;-70
2021/07/04 07:54:03;;;;;;;5.15;4.70;;;23.60;99.90;;;23.93;61.06;100994.41;5095770;28;20075;-70
2021/07/04 07:56:33;;;;;;;5.90;5.17;;;23.60;99.90;;;24.00;60.54;100999.38;5112400;28;20150;-71
2021/07/04 07:59:01;;;;;;;7.22;5.00;;;23.70;99.90;;;24.09;60.20;101000.72;5113684;28;20801;-71
2021/07/04 08:01:30;;;;;;;9.35;5.18;;;23.70;99.90;;;24.14;59.70;100991.38;5113884;28;20062;-71
2021/07/04 08:04:07;;;;;;;5.20;4.70;;;23.80;99.90;;;24.20;60.69;100992.00;5112292;28;20047;-71
2021/07/04 08:06:37;;;;;;;5.18;4.68;;;23.90;99.90;;;24.32;60.81;100980.44;5113527;28;20386;-71
2021/07/04 08:09:07;;;;;;;6.55;5.45;;;24.00;99.90;;;24.45;60.21;100979.63;5095198;28;20104;-71
2021/07/04 08:11:45;;;;;;;5.55;5.15;;;24.10;99.90;;;24.54;59.50;100976.38;5113575;28;20439;-71
2021/07/04 08:14:15;;;;;;;5.90;5.30;;;24.20;99.90;;;24.50;59.24;100985.66;5095102;28;20135;-71
2021/07/04 08:16:49;;;;;;;6.05;5.15;;;24.20;99.90;;;24.51;58.92;100983.78;5095587;28;20104;-71
2021/07/04 08:19:17;;;;;;;5.95;5.38;;;24.20;99.90;;;24.52;58.86;100974.72;5113103;28;20047;-70
2021/07/04 08:21:47;;;;;;;8.18;5.80;;;24.20;99.90;;;24.58;59.99;100982.47;5113397;28;20059;-70
2021/07/04 08:24:16;;;;;;;7.78;4.97;;;24.30;99.90;;;24.64;59.56;100974.00;5113840;28;20043;-71
2021/07/04 08:26:44;;;;;;;5.10;4.57;;;24.40;99.90;;;24.66;57.91;100972.91;5113488;28;20047;-70
2021/07/04 08:29:13;;;;;;;5.60;4.78;;;24.40;99.90;;;24.69;58.23;100969.16;5113212;28;20051;-70
2021/07/04 08:31:41;;;;;;;8.07;5.22;;;24.40;99.90;;;24.70;56.94;100971.75;5113485;28;20075;-70
2021/07/04 08:34:11;;;;;;;5.70;5.05;;;24.40;99.90;;;24.82;58.33;100973.75;5112881;28;20173;-70
2021/07/04 08:36:40;;;;;;;6.40;5.53;;;24.50;99.90;;;24.92;59.05;100969.53;5114097;28;20043;-71
2021/07/04 08:39:10;;;;;;;9.65;5.18;;;24.60;99.90;;;24.97;58.27;100971.97;5117715;28;20059;-70
2021/07/04 08:41:39;;;;;;;6.13;5.38;;;24.70;99.90;;;24.94;56.99;100969.41;5117433;28;20071;-70
2021/07/04 08:44:09;;;;;;;5.45;4.95;;;24.70;99.90;;;24.91;56.96;100969.63;5117302;28;20047;-70
2021/07/04 08:46:41;;;;;;;7.47;5.20;;;24.70;99.90;;;24.80;57.84;100936.91;5099098;28;20055;-70
2021/07/04 08:49:12;;;;;;;5.65;4.68;;;24.70;99.90;;;25.17;57.73;100967.97;5117252;28;20071;-70
2021/07/04 08:51:41;;;;;;;6.15;5.30;;;24.80;99.90;;;25.33;58.37;100971.47;5117236;28;20450;-70
2021/07/04 08:54:13;;;;;;;5.63;5.13;;;25.00;99.90;;;25.40;58.02;100973.72;5116932;28;20101;-70
2021/07/04 08:56:41;;;;;;;5.22;4.82;;;25.10;99.90;;;25.52;57.38;100974.75;5117480;28;20051;-70
2021/07/04 08:59:10;;;;;;;5.25;4.75;;;25.20;99.90;;;25.45;56.96;100974.31;5117307;28;20081;-70
2021/07/04 09:01:50;;;;;;;5.18;4.68;;;25.20;99.90;;;25.48;57.18;100978.63;5117064;28;20071;-70
2021/07/04 09:04:20;;;;;;;5.18;4.70;;;25.20;99.90;;;25.54;57.05;100976.41;5117318;28;20384;-71
2021/07/04 09:06:52;;;;;;;7.03;4.47;;;25.20;99.90;;;25.63;56.75;100964.97;5116935;28;20456;-70
2021/07/04 09:09:25;;;;;;;4.88;4.38;;;25.40;99.90;;;25.66;55.11;100970.19;5116798;28;20044;-70
2021/07/04 09:12:01;;;;;;;4.63;4.22;;;25.40;99.90;;;25.64;54.58;100966.72;5116770;28;20048;-70
2021/07/04 09:14:34;;;;;;;6.47;4.60;;;25.40;99.90;;;25.71;54.26;100972.59;5116861;28;20079;-71
2021/07/04 09:17:34;;;;;;;4.07;3.67;;;25.40;99.90;;;25.67;53.33;100955.66;5098155;28;20039;-70
2021/07/04 09:20:07;;;;;;;4.38;3.80;;;25.40;99.90;;;25.65;54.24;100957.59;5115413;28;20048;-70
2021/07/04 09:22:39;;;;;;;4.78;4.20;;;25.40;99.90;;;25.63;55.09;100962.25;5116660;28;20116;-70
2021/07/04 09:25:13;;;;;;;4.40;3.92;;;25.40;99.90;;;25.74;55.60;100956.16;5098624;28;20617;-70
2021/07/04 09:27:44;;;;;;;4.20;3.80;;;25.50;99.90;;;25.84;55.72;100951.88;5116360;28;20439;-70
2021/07/04 09:30:16;;;;;;;4.70;4.20;;;25.60;99.90;;;25.99;55.06;100958.09;5116383;28;20108;-71
2021/07/04 09:32:49;;;;;;;5.80;4.63;;;25.70;99.90;;;26.00;55.29;100959.84;5098082;28;20470;-70
2021/07/04 09:35:20;;;;;;;5.35;4.88;;;25.70;99.90;;;25.99;55.15;100964.41;5116337;28;20055;-71
2021/07/04 09:37:52;;;;;;;5.07;4.28;;;25.70;99.90;;;26.03;54.74;100963.22;5098036;28;20055;-70
2021/07/04 09:40:25;;;;;;;4.45;4.05;;;25.70;99.90;;;25.98;54.41;100961.78;5116429;28;20051;-70
2021/07/04 09:43:10;;;;;;;3.90;3.50;;;25.70;99.90;;;25.91;54.54;100942.34;5098276;28;20374;-71
2021/07/04 09:45:46;;;;;;;5.30;4.10;;;25.70;99.90;;;26.01;54.42;100959.75;5115962;28;20047;-70
2021/07/04 09:48:17;;;;;;;6.35;4.53;;;25.70;99.90;;;25.97;53.84;100943.78;5114685;28;20059;-70
2021/07/04 09:50:49;;;;;;;4.78;3.70;;;25.70;99.90;;;25.85;53.42;100931.91;5115847;28;20412;-71
2021/07/04 09:53:18;;;;;;;6.47;4.05;;;25.60;99.90;;;26.03;54.46;100946.94;5115848;28;20039;-71
2021/07/04 09:55:51;;;;;;;4.95;3.78;;;25.70;99.90;;;26.00;55.00;100951.72;5115591;28;20048;-71
2021/07/04 09:58:21;;;;;;;6.55;3.95;;;25.70;99.90;;;25.98;54.37;100951.78;5115623;28;20047;-70
2021/07/04 10:00:50;;;;;;;5.27;4.77;;;25.70;99.90;;;25.99;54.24;100944.53;5115684;28;20047;-71
2021/07/04 10:03:21;;;;;;;7.95;4.43;;;25.70;99.90;;;25.42;54.08;100871.53;5097498;28;20092;-71
2021/07/04 10:06:11;;;;;;;;;;;25.50;99.90;;;25.84;55.03;100941.88;5115806;28;20148;-71
2021/07/04 10:08:41;;;;;;;6.05;4.68;;;25.50;99.90;;;25.79;55.55;100933.19;5109292;28;19927;-71
2021/07/04 10:11:14;;;;;;;6.05;4.00;;;25.50;99.90;;;25.89;55.16;100945.16;5115395;28;20035;-70
2021/07/04 10:13:44;;;;;;;4.63;4.18;;;25.50;99.90;;;25.86;54.54;100930.94;5115675;28;20047;-71
2021/07/04 10:16:15;;;;;;;4.78;4.22;;;25.60;99.90;;;25.40;54.47;100846.38;5115612;28;20485;-71
2021/07/04 10:18:49;;;;;;;4.32;3.70;;;25.60;99.90;;;25.88;53.48;100932.56;5115264;28;20063;-71
2021/07/04 10:21:20;;;;;;;4.53;4.13;;;25.60;99.90;;;25.87;54.53;100935.38;5115243;28;20045;-70